createdAt,value
2022-09-06T00:00:57.132Z,45.81
2022-09-06T00:03:24.201Z,45.73
2022-09-06T00:05:51.171Z,45.16
2022-09-06T00:08:18.310Z,45.32
2022-09-06T00:10:45.185Z,45.32
2022-09-06T00:13:13.349Z,45.77
2022-09-06T00:15:40.657Z,45.41
2022-09-06T00:18:07.774Z,45.14
2022-09-06T00:20:35.025Z,45.43
2022-09-06T00:23:05.783Z,45.54
2022-09-06T00:25:33.332Z,45.32
2022-09-06T00:28:02.004Z,45.77
2022-09-06T00:30:29.370Z,45.33
2022-09-06T00:32:56.275Z,45.68
2022-09-06T00:35:24.827Z,45.58
2022-09-06T00:37:52.630Z,45.66
2022-09-06T00:40:19.522Z,45.18
2022-09-06T00:42:46.406Z,45.41
2022-09-06T00:45:13.490Z,45.43
2022-09-06T00:47:41.649Z,45.51
2022-09-06T00:50:09.330Z,45.49
2022-09-06T00:52:36.621Z,45.36
2022-09-06T00:55:04.353Z,45.01
2022-09-06T00:57:32.257Z,45.08
2022-09-06T00:59:59.378Z,45.13
2022-09-06T01:02:26.298Z,45.36
2022-09-06T01:04:53.308Z,45.08
2022-09-06T01:07:40.206Z,45.13
2022-09-06T01:10:30.346Z,45.04
2022-09-06T01:13:04.365Z,45.33
2022-09-06T01:15:45.702Z,44.92
2022-09-06T01:18:23.793Z,45.27
2022-09-06T01:21:15.029Z,45.57
2022-09-06T01:23:51.282Z,45.26
2022-09-06T01:26:53.761Z,45.07
2022-09-06T01:29:46.778Z,45.76
2022-09-06T01:32:38.937Z,45.74
2022-09-06T01:35:07.405Z,45.48
2022-09-06T01:37:34.269Z,46.08
2022-09-06T01:40:01.252Z,45.96
2022-09-06T01:42:31.803Z,45.96
2022-09-06T01:45:02.622Z,45.92
2022-09-06T01:47:52.964Z,45.59
2022-09-06T01:50:46.469Z,45.70
2022-09-06T01:53:52.143Z,46.06
2022-09-06T01:56:40.305Z,46.00
2022-09-06T01:59:07.341Z,45.94
2022-09-06T02:01:38.304Z,46.27
2022-09-06T02:04:18.133Z,46.17
2022-09-06T02:06:47.641Z,46.17
2022-09-06T02:09:20.702Z,46.42
2022-09-06T02:11:58.995Z,46.12
2022-09-06T02:14:31.973Z,46.07
2022-09-06T02:16:59.412Z,46.12
2022-09-06T02:19:44.577Z,46.25
2022-09-06T02:22:12.730Z,46.22
2022-09-06T02:24:40.790Z,46.20
2022-09-06T02:27:07.829Z,46.31
2022-09-06T02:29:34.974Z,46.11
2022-09-06T02:32:06.405Z,46.09
2022-09-06T02:34:33.241Z,46.21
2022-09-06T02:37:00.443Z,46.60
2022-09-06T02:39:27.366Z,46.42
2022-09-06T02:41:54.775Z,46.19
2022-09-06T02:44:22.050Z,46.50
2022-09-06T02:46:48.886Z,46.54
2022-09-06T02:49:15.714Z,46.22
2022-09-06T02:51:42.883Z,46.47
2022-09-06T02:54:09.689Z,46.09
2022-09-06T02:56:36.825Z,46.46
2022-09-06T02:59:05.540Z,46.60
2022-09-06T03:01:33.604Z,46.44
2022-09-06T03:04:00.777Z,46.50
2022-09-06T03:06:28.102Z,46.20
2022-09-06T03:08:54.962Z,46.37
2022-09-06T03:11:21.901Z,46.43
2022-09-06T03:13:51.091Z,46.28
2022-09-06T03:16:18.411Z,46.47
2022-09-06T03:18:45.445Z,46.34
2022-09-06T03:21:12.623Z,46.32
2022-09-06T03:23:39.633Z,46.34
2022-09-06T03:26:07.179Z,46.41
2022-09-06T03:28:34.364Z,46.58
2022-09-06T03:31:01.263Z,46.34
2022-09-06T03:33:28.187Z,46.62
2022-09-06T03:36:00.064Z,46.47
2022-09-06T03:38:27.442Z,46.59
2022-09-06T03:40:54.718Z,46.61
2022-09-06T03:43:23.132Z,46.73
2022-09-06T03:45:54.775Z,46.51
2022-09-06T03:48:23.082Z,46.40
2022-09-06T03:50:52.226Z,46.69
2022-09-06T03:53:19.148Z,46.42
2022-09-06T03:55:46.831Z,46.40
2022-09-06T03:58:14.135Z,46.73
2022-09-06T04:00:41.123Z,46.58
2022-09-06T04:03:08.028Z,46.52
2022-09-06T04:05:35.358Z,46.79
2022-09-06T04:08:02.569Z,46.63
2022-09-06T04:10:29.634Z,46.51
2022-09-06T04:12:56.691Z,46.58
2022-09-06T04:15:23.491Z,46.55
2022-09-06T04:17:50.495Z,46.49
2022-09-06T04:20:17.659Z,46.45
2022-09-06T04:22:44.518Z,46.68
2022-09-06T04:25:11.466Z,46.73
2022-09-06T04:27:38.556Z,46.75
2022-09-06T04:30:06.042Z,46.71
2022-09-06T04:32:32.915Z,46.83
2022-09-06T04:35:00.023Z,48.71
2022-09-06T04:37:26.918Z,48.19
2022-09-06T04:39:54.348Z,48.13
2022-09-06T04:42:21.462Z,47.72
2022-09-06T04:44:48.282Z,47.51
2022-09-06T04:47:15.489Z,47.29
2022-09-06T04:49:43.030Z,47.25
2022-09-06T04:52:10.098Z,47.28
2022-09-06T04:54:37.123Z,47.37
2022-09-06T04:57:04.365Z,47.13
2022-09-06T04:59:31.306Z,47.15
2022-09-06T05:01:58.205Z,47.16
2022-09-06T05:04:25.554Z,47.09
2022-09-06T05:07:06.238Z,47.27
2022-09-06T05:09:33.606Z,47.22
2022-09-06T05:12:00.695Z,47.22
2022-09-06T05:14:28.204Z,46.91
2022-09-06T05:16:55.599Z,46.97
2022-09-06T05:19:22.653Z,46.96
2022-09-06T05:21:51.243Z,47.53
2022-09-06T05:24:18.449Z,46.95
2022-09-06T05:26:45.293Z,47.09
2022-09-06T05:29:12.245Z,47.32
2022-09-06T05:31:39.385Z,47.04
2022-09-06T05:34:06.427Z,47.29
2022-09-06T05:36:33.389Z,47.02
2022-09-06T05:39:00.493Z,47.04
2022-09-06T05:41:27.610Z,46.87
2022-09-06T05:43:54.438Z,47.24
2022-09-06T05:46:21.634Z,46.94
2022-09-06T05:48:55.396Z,46.73
2022-09-06T05:51:22.505Z,46.17
2022-09-06T05:53:49.401Z,46.35
2022-09-06T05:56:16.487Z,45.52
2022-09-06T05:58:43.678Z,45.04
2022-09-06T06:01:27.844Z,45.68
2022-09-06T06:03:59.031Z,45.73
2022-09-06T06:06:27.636Z,46.32
2022-09-06T06:08:54.563Z,45.57
2022-09-06T06:11:21.652Z,46.33
2022-09-06T06:13:48.539Z,46.51
2022-09-06T06:16:16.761Z,46.08
2022-09-06T06:18:51.778Z,45.26
2022-09-06T06:21:20.794Z,44.56
2022-09-06T06:23:50.826Z,45.24
2022-09-06T06:26:17.730Z,44.98
2022-09-06T06:28:44.627Z,45.17
2022-09-06T06:31:14.712Z,45.50
2022-09-06T06:33:41.923Z,46.08
2022-09-06T06:36:15.050Z,45.35
2022-09-06T06:38:43.257Z,46.28
2022-09-06T06:41:11.841Z,46.61
2022-09-06T06:43:38.731Z,45.39
2022-09-06T06:46:10.488Z,45.43
2022-09-06T06:48:38.039Z,46.11
2022-09-06T06:51:04.967Z,46.32
2022-09-06T06:53:33.356Z,45.95
2022-09-06T06:56:00.182Z,46.28
2022-09-06T06:58:27.446Z,46.33
2022-09-06T07:00:54.698Z,45.79
2022-09-06T07:03:21.774Z,45.87
2022-09-06T07:08:37.305Z,45.53
2022-09-06T07:11:07.901Z,44.91
2022-09-06T07:13:34.860Z,45.24
2022-09-06T07:16:13.608Z,45.51
2022-09-06T07:18:43.454Z,46.24
2022-09-06T07:24:08.729Z,44.53
2022-09-06T07:26:37.619Z,44.22
2022-09-06T07:29:05.047Z,43.79
2022-09-06T07:34:20.703Z,43.70
2022-09-06T07:36:48.380Z,44.40
2022-09-06T07:39:15.395Z,44.38
2022-09-06T07:41:43.029Z,43.93
2022-09-06T07:44:10.176Z,43.76
2022-09-06T07:46:37.354Z,43.61
2022-09-06T07:49:05.490Z,44.19
2022-09-06T07:51:32.602Z,43.99
2022-09-06T07:54:19.251Z,44.15
2022-09-06T07:56:46.550Z,44.33
2022-09-06T07:59:13.569Z,43.84
2022-09-06T08:01:40.623Z,44.10
2022-09-06T08:04:15.251Z,44.13
2022-09-06T08:09:35.579Z,44.43
2022-09-06T08:12:09.370Z,43.98
2022-09-06T08:14:36.548Z,44.19
2022-09-06T08:17:03.505Z,44.30
2022-09-06T08:19:30.352Z,44.06
2022-09-06T08:21:57.439Z,43.56
2022-09-06T08:24:24.286Z,43.87
2022-09-06T08:26:51.250Z,43.48
2022-09-06T08:29:19.888Z,43.30
2022-09-06T08:31:46.983Z,43.40
2022-09-06T08:34:15.195Z,43.20
2022-09-06T08:36:42.470Z,43.25
2022-09-06T08:39:10.183Z,42.72
2022-09-06T08:42:06.883Z,42.95
2022-09-06T08:47:24.854Z,42.93
2022-09-06T08:50:02.288Z,42.94
2022-09-06T08:52:45.350Z,43.29
2022-09-06T08:55:44.973Z,43.44
2022-09-06T08:58:44.516Z,43.28
2022-09-06T09:01:18.468Z,43.35
2022-09-06T09:03:45.470Z,43.72
2022-09-06T09:06:12.602Z,43.34
2022-09-06T09:08:54.111Z,43.22
2022-09-06T09:11:22.215Z,43.26
2022-09-06T09:13:59.551Z,43.17
2022-09-06T09:16:26.763Z,42.94
2022-09-06T09:18:59.652Z,43.25
2022-09-06T09:21:30.670Z,43.12
2022-09-06T09:24:02.641Z,43.20
2022-09-06T09:26:32.849Z,42.75
2022-09-06T09:29:10.882Z,43.07
2022-09-06T09:31:40.499Z,42.80
2022-09-06T09:34:11.606Z,42.25
2022-09-06T09:36:38.926Z,42.64
2022-09-06T09:39:10.628Z,42.68
2022-09-06T09:41:39.713Z,42.51
2022-09-06T09:44:16.091Z,42.67
2022-09-06T09:46:43.565Z,42.18
2022-09-06T09:49:35.052Z,42.18
2022-09-06T09:52:13.478Z,42.00
2022-09-06T09:54:44.944Z,41.83
2022-09-06T09:57:14.752Z,42.04
2022-09-06T09:59:47.570Z,41.97
2022-09-06T10:02:35.878Z,41.25
2022-09-06T10:05:05.204Z,41.57
2022-09-06T10:07:33.076Z,41.70
2022-09-06T10:10:07.451Z,41.02
2022-09-06T10:12:36.324Z,40.50
2022-09-06T10:15:06.892Z,41.20
2022-09-06T10:17:52.542Z,40.45
2022-09-06T10:20:19.668Z,40.39
2022-09-06T10:23:05.320Z,40.53
2022-09-06T10:25:38.599Z,40.37
2022-09-06T10:28:22.447Z,40.46
2022-09-06T10:31:20.483Z,40.04
2022-09-06T10:33:56.431Z,40.07
2022-09-06T10:36:48.954Z,40.23
2022-09-06T10:39:54.918Z,40.55
2022-09-06T10:42:45.487Z,39.93
2022-09-06T10:45:21.925Z,40.19
2022-09-06T10:48:04.800Z,39.71
2022-09-06T10:51:10.315Z,39.41
2022-09-06T10:53:40.126Z,39.71
2022-09-06T10:56:08.689Z,39.66
2022-09-06T11:01:42.753Z,39.43
2022-09-06T11:04:13.140Z,39.07
2022-09-06T11:06:44.531Z,39.44
2022-09-06T11:09:47.425Z,38.60
2022-09-06T11:12:27.407Z,39.03
2022-09-06T11:14:54.516Z,38.42
2022-09-06T11:17:41.177Z,39.10
2022-09-06T11:20:17.062Z,39.10
2022-09-06T11:23:02.267Z,39.15
2022-09-06T11:25:50.604Z,38.61
2022-09-06T11:28:22.351Z,38.14
2022-09-06T11:30:49.298Z,38.25
2022-09-06T11:33:29.835Z,38.23
2022-09-06T11:36:34.580Z,38.16
2022-09-06T11:39:02.677Z,38.56
2022-09-06T11:41:34.920Z,38.34
2022-09-06T11:44:02.027Z,38.01
2022-09-06T11:46:35.122Z,37.70
2022-09-06T11:49:06.717Z,38.01
2022-09-06T11:51:43.961Z,38.29
2022-09-06T11:54:34.555Z,37.70
2022-09-06T11:57:03.150Z,37.56
2022-09-06T11:59:33.291Z,37.64
2022-09-06T12:02:27.453Z,37.54
2022-09-06T12:05:00.966Z,37.51
2022-09-06T12:07:28.596Z,37.60
2022-09-06T12:09:55.748Z,37.15
2022-09-06T12:12:44.255Z,37.58
2022-09-06T12:15:26.626Z,37.71
2022-09-06T12:17:53.521Z,37.37
2022-09-06T12:20:45.726Z,37.71
2022-09-06T12:23:35.236Z,37.97
2022-09-06T12:26:06.569Z,37.74
2022-09-06T12:28:47.087Z,37.94
2022-09-06T12:31:39.152Z,37.60
2022-09-06T12:34:27.514Z,37.76
2022-09-06T12:36:58.533Z,37.69
2022-09-06T12:39:25.588Z,37.75
2022-09-06T12:41:55.818Z,37.78
2022-09-06T12:44:43.369Z,37.91
2022-09-06T12:47:15.153Z,37.60
2022-09-06T12:49:42.247Z,37.34
2022-09-06T12:52:14.665Z,37.80
2022-09-06T12:54:46.829Z,37.72
2022-09-06T12:57:19.485Z,37.57
2022-09-06T12:59:56.783Z,37.68
2022-09-06T13:02:25.571Z,37.30
2022-09-06T13:04:55.970Z,37.12
2022-09-06T13:07:23.396Z,36.92
2022-09-06T13:09:52.055Z,37.82
2022-09-06T13:12:34.808Z,37.94
2022-09-06T13:15:13.589Z,37.63
2022-09-06T13:17:40.459Z,36.76
2022-09-06T13:20:15.800Z,37.17
2022-09-06T13:22:47.979Z,37.20
2022-09-06T13:25:21.291Z,37.22
2022-09-06T13:27:56.626Z,37.20
2022-09-06T13:30:46.748Z,37.46
2022-09-06T13:33:25.713Z,37.20
2022-09-06T13:36:16.273Z,37.25
2022-09-06T13:38:44.243Z,37.43
2022-09-06T13:41:26.760Z,37.73
2022-09-06T13:44:04.760Z,37.98
2022-09-06T13:46:36.387Z,37.45
2022-09-06T13:49:03.501Z,37.10
2022-09-06T13:51:30.365Z,37.70
2022-09-06T13:54:08.025Z,36.92
2022-09-06T13:56:35.269Z,36.90
2022-09-06T13:59:02.989Z,37.81
2022-09-06T14:01:30.032Z,36.96
2022-09-06T14:03:57.618Z,37.20
2022-09-06T14:06:24.762Z,36.95
2022-09-06T14:09:08.277Z,37.60
2022-09-06T14:11:36.049Z,37.63
2022-09-06T14:14:02.953Z,38.10
2022-09-06T14:16:30.102Z,37.76
2022-09-06T14:18:57.581Z,37.64
2022-09-06T14:21:24.509Z,37.49
2022-09-06T14:23:51.690Z,37.42
2022-09-06T14:26:19.816Z,37.91
2022-09-06T14:28:46.793Z,37.12
2022-09-06T14:31:15.416Z,37.65
2022-09-06T14:33:42.809Z,37.45
2022-09-06T14:36:12.048Z,37.15
2022-09-06T14:38:40.108Z,36.91
2022-09-06T14:41:08.001Z,37.63
2022-09-06T14:43:35.429Z,37.35
2022-09-06T14:46:10.460Z,37.62
2022-09-06T14:48:41.626Z,37.72
2022-09-06T14:51:09.632Z,38.17
2022-09-06T14:53:43.045Z,37.26
2022-09-06T14:56:10.740Z,37.23
2022-09-06T14:58:38.236Z,37.90
2022-09-06T15:01:08.522Z,37.83
2022-09-06T15:03:36.073Z,38.37
2022-09-06T15:06:03.533Z,38.37
2022-09-06T15:08:30.473Z,39.09
2022-09-06T15:10:58.453Z,37.93
2022-09-06T15:13:27.028Z,37.85
2022-09-06T15:15:57.268Z,37.13
2022-09-06T15:18:24.614Z,37.94
2022-09-06T15:20:51.529Z,37.89
2022-09-06T15:23:25.917Z,38.06
2022-09-06T15:25:54.194Z,37.63
2022-09-06T15:28:21.270Z,37.60
2022-09-06T15:30:48.820Z,38.03
2022-09-06T15:33:16.101Z,38.34
2022-09-06T15:35:43.293Z,38.17
2022-09-06T15:38:11.487Z,37.82
2022-09-06T15:40:38.998Z,37.68
2022-09-06T15:43:06.349Z,37.30
2022-09-06T15:45:36.027Z,37.40
2022-09-06T15:48:03.428Z,37.96
2022-09-06T15:50:50.386Z,37.71
2022-09-06T15:53:19.188Z,37.97
2022-09-06T15:55:58.139Z,38.26
2022-09-06T15:58:26.744Z,37.34
2022-09-06T16:01:50.132Z,37.96
2022-09-06T16:04:35.620Z,38.14
2022-09-06T16:07:03.229Z,38.56
2022-09-06T16:09:30.141Z,37.66
2022-09-06T16:11:57.175Z,37.71
2022-09-06T16:14:24.329Z,38.25
2022-09-06T16:16:54.938Z,38.63
2022-09-06T16:19:21.992Z,38.64
2022-09-06T16:21:49.345Z,38.54
2022-09-06T16:24:16.336Z,38.68
2022-09-06T16:26:44.476Z,38.87
2022-09-06T16:29:12.492Z,38.51
2022-09-06T16:31:40.776Z,38.17
2022-09-06T16:34:11.981Z,38.85
2022-09-06T16:36:39.345Z,38.88
2022-09-06T16:39:06.627Z,38.61
2022-09-06T16:41:40.762Z,38.58
2022-09-06T16:44:16.313Z,38.93
2022-09-06T16:46:44.802Z,39.46
2022-09-06T16:49:12.014Z,39.12
2022-09-06T16:51:39.047Z,39.39
2022-09-06T16:54:06.027Z,38.89
2022-09-06T16:56:35.756Z,39.23
2022-09-06T16:59:05.241Z,38.82
2022-09-06T17:01:32.531Z,39.21
2022-09-06T17:04:02.262Z,39.05
2022-09-06T17:06:29.584Z,38.95
2022-09-06T17:08:58.532Z,39.29
2022-09-06T17:11:26.190Z,39.50
2022-09-06T17:13:54.199Z,39.52
2022-09-06T17:16:40.243Z,39.37
2022-09-06T17:19:07.542Z,39.55
2022-09-06T17:21:34.634Z,39.20
2022-09-06T17:24:04.671Z,39.34
2022-09-06T17:26:33.866Z,39.66
2022-09-06T17:29:00.854Z,39.12
2022-09-06T17:31:28.276Z,39.38
2022-09-06T17:33:55.589Z,39.72
2022-09-06T17:36:24.241Z,39.56
2022-09-06T17:38:53.539Z,39.48
2022-09-06T17:41:27.416Z,39.69
2022-09-06T17:43:54.749Z,39.69
2022-09-06T17:46:26.472Z,40.09
2022-09-06T17:48:56.337Z,39.96
2022-09-06T17:51:24.017Z,40.23
2022-09-06T17:53:52.242Z,40.30
2022-09-06T17:56:19.653Z,39.74
2022-09-06T17:58:57.109Z,40.05
2022-09-06T18:01:25.007Z,39.81
2022-09-06T18:03:52.580Z,39.82
2022-09-06T18:06:20.580Z,39.99
2022-09-06T18:08:48.000Z,39.93
2022-09-06T18:11:18.076Z,40.50
2022-09-06T18:13:45.213Z,40.38
2022-09-06T18:16:14.202Z,40.43
2022-09-06T18:18:41.421Z,40.10
2022-09-06T18:21:08.392Z,40.56
2022-09-06T18:23:35.952Z,40.60
2022-09-06T18:26:07.072Z,40.77
2022-09-06T18:28:35.401Z,40.13
2022-09-06T18:31:07.450Z,40.83
2022-09-06T18:33:37.236Z,40.44
2022-09-06T18:36:06.102Z,40.50
2022-09-06T18:38:34.692Z,40.47
2022-09-06T18:41:04.264Z,40.55
2022-09-06T18:43:33.128Z,40.64
2022-09-06T18:46:04.146Z,40.70
2022-09-06T18:48:32.898Z,40.92
2022-09-06T18:51:07.386Z,40.66
2022-09-06T18:53:35.213Z,40.37
2022-09-06T18:56:02.678Z,40.41
2022-09-06T18:58:29.842Z,40.93
2022-09-06T19:01:05.486Z,40.80
2022-09-06T19:03:32.980Z,40.83
2022-09-06T19:06:07.044Z,40.86
2022-09-06T19:08:34.609Z,40.38
2022-09-06T19:11:07.725Z,40.54
2022-09-06T19:13:37.169Z,40.43
2022-09-06T19:16:05.954Z,40.39
2022-09-06T19:18:33.690Z,40.30
2022-09-06T19:21:04.097Z,40.82
2022-09-06T19:23:33.598Z,40.90
2022-09-06T19:26:07.074Z,41.12
2022-09-06T19:28:34.942Z,41.98
2022-09-06T19:31:16.132Z,41.35
2022-09-06T19:33:43.984Z,42.31
2022-09-06T19:36:12.356Z,42.78
2022-09-06T19:39:02.052Z,43.00
2022-09-06T19:41:27.601Z,42.58
2022-09-06T19:43:55.824Z,42.01
2022-09-06T19:46:23.271Z,43.01
2022-09-06T19:48:51.638Z,42.22
2022-09-06T19:51:18.777Z,42.34
2022-09-06T19:53:53.276Z,43.50
2022-09-06T19:56:25.046Z,43.69
2022-09-06T19:58:55.920Z,42.41
2022-09-06T20:01:23.865Z,43.26
2022-09-06T20:03:51.004Z,43.53
2022-09-06T20:06:18.098Z,44.71
2022-09-06T20:08:48.722Z,43.61
2022-09-06T20:11:15.621Z,44.36
2022-09-06T20:13:42.912Z,44.23
2022-09-06T20:16:10.478Z,43.92
2022-09-06T20:18:37.901Z,44.59
2022-09-06T20:21:05.106Z,44.09
2022-09-06T20:23:32.822Z,43.95
2022-09-06T20:26:01.088Z,44.22
2022-09-06T20:28:28.048Z,44.33
2022-09-06T20:31:02.346Z,44.25
2022-09-06T20:33:29.645Z,43.39
2022-09-06T20:35:58.259Z,42.98
2022-09-06T20:38:25.555Z,42.80
2022-09-06T20:41:06.013Z,42.50
2022-09-06T20:43:36.536Z,42.31
2022-09-06T20:46:04.685Z,43.26
2022-09-06T20:48:34.887Z,43.56
2022-09-06T20:51:03.050Z,42.85
2022-09-06T20:53:30.572Z,43.63
2022-09-06T20:55:58.900Z,42.74
2022-09-06T20:58:26.222Z,43.77
2022-09-06T21:00:53.287Z,43.34
2022-09-06T21:03:20.550Z,44.05
2022-09-06T21:05:47.683Z,43.37
2022-09-06T21:08:14.948Z,43.12
2022-09-06T21:10:41.916Z,43.94
2022-09-06T21:13:09.923Z,43.65
2022-09-06T21:15:37.362Z,41.96
2022-09-06T21:18:04.711Z,42.63
2022-09-06T21:20:31.863Z,42.27
2022-09-06T21:22:58.819Z,43.12
2022-09-06T21:25:25.676Z,42.56
2022-09-06T21:27:55.762Z,42.46
2022-09-06T21:30:22.927Z,42.64
2022-09-06T21:32:53.435Z,43.06
2022-09-06T21:35:20.628Z,42.68
2022-09-06T21:37:47.525Z,41.82
2022-09-06T21:40:14.499Z,42.08
2022-09-06T21:42:41.598Z,41.73
2022-09-06T21:45:08.940Z,41.74
2022-09-06T21:47:35.848Z,42.07
2022-09-06T21:50:03.042Z,41.61
2022-09-06T21:52:32.452Z,41.93
2022-09-06T21:54:59.588Z,42.18
2022-09-06T21:57:26.739Z,42.04
2022-09-06T21:59:53.683Z,41.48
2022-09-06T22:02:21.432Z,41.72
2022-09-06T22:04:49.528Z,41.80
2022-09-06T22:07:16.408Z,42.00
2022-09-06T22:09:43.467Z,42.01
2022-09-06T22:12:10.555Z,42.07
2022-09-06T22:14:37.483Z,41.68
2022-09-06T22:17:04.430Z,41.67
2022-09-06T22:19:31.475Z,41.76
2022-09-06T22:21:58.454Z,42.00
2022-09-06T22:24:25.298Z,41.65
2022-09-06T22:26:52.348Z,41.24
2022-09-06T22:29:19.181Z,42.04
2022-09-06T22:31:46.259Z,42.07
2022-09-06T22:34:13.477Z,41.92
2022-09-06T22:36:40.455Z,42.00
2022-09-06T22:39:07.438Z,41.98
2022-09-06T22:41:35.148Z,41.69
2022-09-06T22:44:02.605Z,42.07
2022-09-06T22:46:29.671Z,42.35
2022-09-06T22:48:57.208Z,42.61
2022-09-06T22:51:24.055Z,42.20
2022-09-06T22:53:50.877Z,42.23
2022-09-06T22:56:18.167Z,42.19
2022-09-06T22:58:45.038Z,42.58
2022-09-06T23:01:13.288Z,42.46
2022-09-06T23:06:08.989Z,42.64
2022-09-06T23:08:37.211Z,42.89
2022-09-06T23:11:12.524Z,42.50
2022-09-06T23:13:43.522Z,42.72
2022-09-06T23:16:12.874Z,42.75
2022-09-06T23:18:39.999Z,42.92
2022-09-06T23:21:07.130Z,42.55
2022-09-06T23:23:35.090Z,42.72
2022-09-06T23:26:28.950Z,42.25
2022-09-06T23:28:58.827Z,42.61
2022-09-06T23:31:27.942Z,42.95
2022-09-06T23:33:59.072Z,42.86
2022-09-06T23:36:26.426Z,42.95
2022-09-06T23:38:53.495Z,42.58
2022-09-06T23:41:20.523Z,42.81
2022-09-06T23:43:47.539Z,42.63
2022-09-06T23:46:17.237Z,42.61
2022-09-06T23:48:44.257Z,42.94
2022-09-06T23:51:11.627Z,42.71
2022-09-06T23:53:38.699Z,43.28
2022-09-06T23:56:06.917Z,43.09
2022-09-06T23:58:34.505Z,42.81
